TN58 weather

Parsons Field
Brighton, Tennessee, United States

Public forecast

Using degrees Fahrenheit for public forecast. Weather courtesy of forecast.io.

METAR (pilot weather report)

Closest report is Millington-Memphis Airport, 10.7 nm (19.8 km) WSW. Retrieved 2019/08/21 13:50 UTC (1 hour ago):

KNQA 211350Z 19003KT 10SM CLR 26/23 A3006

TAF (pilot weather forecast)

Closest forecast is Memphis International Airport, 26.2 nm (48.5 km) SW. Retrieved 2019/08/21 12:27 UTC (2 hours ago):

TAF KMEM 211124Z 2112/2218 20004KT P6SM FEW150 BKN250 FM211600 20005KT P6SM SCT040 SCT250 FM212000 21006KT P6SM VCSH SCT040 SCT250 FM220200 18005KT P6SM FEW050 SCT250 FM221500 20006KT P6SM VCSH SCT040